La Porte, Minnesota
Current Conditions -  °F | °C
As of 2:15 PM on Monday 22 Dec 2014 (Local Time) from KY49 Reporting Station
Drizzle Drizzle  
Wind Chill: 30°   Ceiling: 600
Heat Index: 34°   Visibility: 7mi
Dew Point: 33°   Wind: 5mph
Humidity: 96%   Direction: 120°ESE
Pressure: 29.58"   Gusts: NA
Location:  47.2392°N, 94.7928°W
Report Text: KY49 222015Z AUTO 12004KT 7SM DZ OVC006 01/01 A2958 RMK AO2 T00100005
Loading
Personal Weather Stations






























Interactive Weather Map New forecast layout! Learn more

10-Day Weather Forecast

Advertisements
Track Severe Weather on mobile